Time;durP1;ratioP1;P1;durP2;ratioP2;P2;SDS_P1;SDS_P2;PMS_P1;PMS_P2;Temp;Humidity;BMP_temperature;BMP_pressure;BME280_temperature;BME280_humidity;BME280_pressure;Samples;Min_cycle;Max_cycle;Signal;HPM_P1;HPM_P2
2022/09/09 00:00:37;;;;;;;;;;;;;;;14.99;100.00;100298.34;4921298;29;19993;-83
2022/09/09 00:03:12;;;;;;;;;;;;;;;15.17;100.00;100286.88;4923076;29;19933;-82
2022/09/09 00:06:03;;;;;;;;;;;;;;;15.08;100.00;100283.75;4940367;29;20575;-81
2022/09/09 00:08:38;;;;;;;;;;;;;;;15.04;100.00;100292.78;4931006;29;19926;-82
2022/09/09 00:11:05;;;;;;;;;;;;;;;15.14;100.00;100287.00;5048252;23;20263;-81
2022/09/09 00:13:38;;;;;;;;;;;;;;;14.98;100.00;100285.09;4958673;28;19926;-82
2022/09/09 00:16:04;;;;;;;;;;;;;;;14.92;100.00;100281.78;4960495;28;20009;-82
2022/09/09 00:18:32;;;;;;;;;;;;;;;14.83;100.00;100276.88;4972902;28;19922;-83
2022/09/09 00:21:02;;;;;;;;;;;;;;;14.78;100.00;100278.84;4968846;28;19933;-82
2022/09/09 00:23:39;;;;;;;;;;;;;;;14.72;100.00;100276.47;4974005;28;19922;-82
2022/09/09 00:26:16;;;;;;;;;;;;;;;14.69;100.00;100275.72;4964366;28;20434;-83
2022/09/09 00:29:06;;;;;;;;;;;;;;;14.62;100.00;100277.78;4961145;28;19921;-82
2022/09/09 00:31:33;;;;;;;;;;;;;;;14.58;100.00;100281.53;4989928;28;20322;-82
2022/09/09 00:34:05;;;;;;;;;;;;;;;14.60;100.00;100284.97;4989407;28;20338;-82
2022/09/09 00:36:31;;;;;;;;;;;;;;;14.71;100.00;100279.19;4968047;28;20398;-82
2022/09/09 00:39:01;;;;;;;;;;;;;;;14.71;100.00;100276.53;4960967;28;19925;-82
2022/09/09 00:41:37;;;;;;;;;;;;;;;14.70;100.00;100286.31;4972395;28;19925;-82
2022/09/09 00:44:23;;;;;;;;;;;;;;;14.66;100.00;100291.84;4959588;28;19972;-82
2022/09/09 00:46:53;;;;;;;;;;;;;;;14.67;100.00;100290.91;4990627;28;19929;-82
2022/09/09 00:49:22;;;;;;;;;;;;;;;14.66;100.00;100284.72;4960772;28;19985;-82
2022/09/09 00:52:07;;;;;;;;;;;;;;;14.66;100.00;100287.38;4991589;28;19983;-83
2022/09/09 00:54:53;;;;;;;;;;;;;;;14.66;100.00;100287.38;4982290;28;19925;-83
2022/09/09 00:57:29;;;;;;;;;;;;;;;14.62;100.00;100289.28;4975867;28;20286;-81
2022/09/09 01:00:15;;;;;;;;;;;;;;;14.62;100.00;100280.44;4977753;28;20009;-81
2022/09/09 01:02:41;;;;;;;;;;;;;;;14.62;100.00;100286.63;4972502;28;19929;-81
2022/09/09 01:05:12;;;;;;;;;;;;;;;14.58;100.00;100279.72;4956981;28;20470;-83
2022/09/09 01:07:38;;;;;;;;;;;;;;;14.59;100.00;100284.09;4975150;28;20375;-83
2022/09/09 01:10:12;;;;;;;;;;;;;;;14.60;100.00;100283.19;4972906;28;20512;-82
2022/09/09 01:12:39;;;;;;;;;;;;;;;14.66;100.00;100289.19;4939791;28;19933;-82
2022/09/09 01:15:09;;;;;;;;;;;;;;;14.61;100.00;100287.56;4972929;28;20017;-82
2022/09/09 01:17:41;;;;;;;;;;;;;;;14.56;100.00;100294.03;4978629;28;20046;-82
2022/09/09 01:20:10;;;;;;;;;;;;;;;14.54;100.00;100296.72;4946789;28;20342;-82
2022/09/09 01:22:45;;;;;;;;;;;;;;;14.52;100.00;100293.28;4987561;28;19926;-82
2022/09/09 01:25:15;;;;;;;;;;;;;;;14.52;100.00;100290.63;4953643;28;19943;-82
2022/09/09 01:27:42;;;;;;;;;;;;;;;14.54;100.00;100299.38;4957985;28;19922;-82
2022/09/09 01:30:10;;;;;;;;;;;;;;;14.63;100.00;100290.19;4972096;28;19922;-81
2022/09/09 01:32:36;;;;;;;;;;;;;;;14.62;100.00;100299.06;4974471;28;19933;-81
2022/09/09 01:35:03;;;;;;;;;;;;;;;14.68;100.00;100305.91;4991417;28;20012;-82
2022/09/09 01:37:30;;;;;;;;;;;;;;;14.77;100.00;100302.84;4971045;28;19922;-82
2022/09/09 01:39:57;;;;;;;;;;;;;;;14.65;100.00;100309.59;4956886;28;19922;-82
2022/09/09 01:42:23;;;;;;;;;;;;;;;14.62;100.00;100305.22;4957023;28;19929;-82
2022/09/09 01:44:50;;;;;;;;;;;;;;;14.67;100.00;100310.38;4977373;28;19929;-83
2022/09/09 01:47:17;;;;;;;;;;;;;;;14.76;100.00;100306.44;4972922;28;19929;-83
2022/09/09 01:49:44;;;;;;;;;;;;;;;14.69;100.00;100315.63;4977625;28;20354;-81
2022/09/09 01:52:10;;;;;;;;;;;;;;;14.76;100.00;100306.44;4998027;28;19922;-82
2022/09/09 01:54:37;;;;;;;;;;;;;;;14.73;100.00;100302.13;4981289;28;19972;-82
2022/09/09 01:57:10;;;;;;;;;;;;;;;14.74;100.00;100303.00;4979768;28;19957;-82
2022/09/09 01:59:56;;;;;;;;;;;;;;;14.73;100.00;100303.94;4978649;28;19968;-83
2022/09/09 02:02:29;;;;;;;;;;;;;;;14.68;100.00;100298.81;4989670;28;19929;-82
2022/09/09 02:04:58;;;;;;;;;;;;;;;14.69;100.00;100304.97;4976482;28;19945;-83
2022/09/09 02:07:24;;;;;;;;;;;;;;;14.70;100.00;100293.41;4974851;28;19944;-83
2022/09/09 02:09:52;;;;;;;;;;;;;;;14.68;100.00;100293.47;4992434;28;20201;-83
2022/09/09 02:12:18;;;;;;;;;;;;;;;14.73;100.00;100307.47;4988251;28;19926;-83
2022/09/09 02:14:54;;;;;;;;;;;;;;;14.72;100.00;100299.56;4995969;28;19929;-81
2022/09/09 02:17:23;;;;;;;;;;;;;;;14.68;100.00;100300.59;4994387;28;19929;-82
2022/09/09 02:19:51;;;;;;;;;;;;;;;14.75;100.00;100305.59;4996247;28;19921;-82
2022/09/09 02:22:18;;;;;;;;;;;;;;;14.84;100.00;100299.00;4976494;28;19932;-82
2022/09/09 02:24:46;;;;;;;;;;;;;;;14.74;100.00;100298.53;4978302;28;20286;-82
2022/09/09 02:27:12;;;;;;;;;;;;;;;14.68;100.00;100296.16;4977444;28;19925;-84
2022/09/09 02:29:41;;;;;;;;;;;;;;;14.67;100.00;100301.53;4984455;28;19933;-84
2022/09/09 02:32:14;;;;;;;;;;;;;;;14.77;100.00;100297.53;4969000;28;19973;-83
2022/09/09 02:34:48;;;;;;;;;;;;;;;14.77;100.00;100298.41;5003980;28;19922;-83
2022/09/09 02:37:15;;;;;;;;;;;;;;;14.83;100.00;100291.97;5009753;28;19932;-83
2022/09/09 02:39:42;;;;;;;;;;;;;;;14.74;100.00;100298.53;5007796;28;19956;-82
2022/09/09 02:42:09;;;;;;;;;;;;;;;14.79;100.00;100288.56;4976059;28;19982;-83
2022/09/09 02:44:36;;;;;;;;;;;;;;;14.68;100.00;100295.28;4973473;28;19926;-82
2022/09/09 02:47:21;;;;;;;;;;;;;;;14.67;100.00;100299.75;4976254;28;19910;-82
2022/09/09 02:49:56;;;;;;;;;;;;;;;14.78;100.00;100302.78;4991260;28;20298;-83
2022/09/09 02:52:27;;;;;;;;;;;;;;;14.71;100.00;100303.97;4961444;28;19929;-83
2022/09/09 02:54:55;;;;;;;;;;;;;;;14.74;100.00;100310.97;4957058;28;20025;-83
2022/09/09 02:57:29;;;;;;;;;;;;;;;14.72;100.00;100315.50;4972682;28;19922;-84
2022/09/09 02:59:58;;;;;;;;;;;;;;;14.71;100.00;100313.75;4971292;28;19930;-83
2022/09/09 03:02:25;;;;;;;;;;;;;;;14.80;100.00;100313.38;4940394;28;20335;-83
2022/09/09 03:04:52;;;;;;;;;;;;;;;14.76;100.00;100319.75;4970110;28;20016;-83
2022/09/09 03:07:19;;;;;;;;;;;;;;;14.85;100.00;100317.56;4970911;28;19929;-82
2022/09/09 03:09:45;;;;;;;;;;;;;;;14.72;100.00;100315.50;4958353;28;19929;-83
2022/09/09 03:12:12;;;;;;;;;;;;;;;14.88;100.00;100317.44;4971256;28;19929;-82
2022/09/09 03:14:38;;;;;;;;;;;;;;;14.77;100.00;100316.16;4973920;28;19925;-83
2022/09/09 03:17:05;;;;;;;;;;;;;;;14.80;100.00;100311.59;4956950;28;19922;-83
2022/09/09 03:19:31;;;;;;;;;;;;;;;14.76;100.00;100322.41;4974391;28;19973;-83
2022/09/09 03:21:58;;;;;;;;;;;;;;;14.84;100.00;100323.81;4988940;28;19921;-83
2022/09/09 03:24:25;;;;;;;;;;;;;;;14.69;100.00;100320.94;4971167;28;19934;-82
2022/09/09 03:26:55;;;;;;;;;;;;;;;14.68;100.00;100316.56;4954123;28;20257;-82
2022/09/09 03:29:22;;;;;;;;;;;;;;;14.72;100.00;100324.34;4955568;28;19929;-83
2022/09/09 03:31:50;;;;;;;;;;;;;;;14.71;100.00;100314.63;4952104;28;19925;-83
2022/09/09 03:34:17;;;;;;;;;;;;;;;14.69;100.00;100316.47;4958665;28;19925;-82
2022/09/09 03:36:43;;;;;;;;;;;;;;;14.61;100.00;100314.16;4956632;28;19925;-82
2022/09/09 03:39:10;;;;;;;;;;;;;;;14.65;100.00;100312.25;4974610;28;19926;-81
2022/09/09 03:41:37;;;;;;;;;;;;;;;14.68;100.00;100314.75;4946058;28;19929;-83
2022/09/09 03:44:03;;;;;;;;;;;;;;;14.63;100.00;100314.97;4942166;28;19929;-82
2022/09/09 03:46:31;;;;;;;;;;;;;;;14.65;100.00;100317.56;4948925;28;20380;-82
2022/09/09 03:48:58;;;;;;;;;;;;;;;14.65;100.00;100322.88;4972608;28;19922;-82
2022/09/09 03:51:24;;;;;;;;;;;;;;;14.67;100.00;100322.81;4971976;28;19926;-82
2022/09/09 03:53:52;;;;;;;;;;;;;;;14.83;100.00;100329.19;4960440;28;19977;-83
2022/09/09 03:56:21;;;;;;;;;;;;;;;14.73;100.00;100315.44;4975086;28;20334;-82
2022/09/09 03:58:47;;;;;;;;;;;;;;;14.56;100.00;100305.53;4961215;28;19922;-83
2022/09/09 04:01:14;;;;;;;;;;;;;;;14.58;100.00;100316.94;4957691;28;19976;-82
2022/09/09 04:03:40;;;;;;;;;;;;;;;14.45;100.00;100321.03;4966917;28;19921;-82
2022/09/09 04:06:09;;;;;;;;;;;;;;;14.56;100.00;100315.28;4955438;28;19932;-81
2022/09/09 04:08:35;;;;;;;;;;;;;;;14.48;100.00;100317.41;4961599;28;19973;-81
2022/09/09 04:11:06;;;;;;;;;;;;;;;14.49;100.00;100319.13;4960899;28;19980;-82
2022/09/09 04:13:37;;;;;;;;;;;;;;;14.49;100.00;100322.66;4959725;28;19949;-82
2022/09/09 04:16:04;;;;;;;;;;;;;;;14.45;100.00;100323.69;4958295;28;19922;-81
2022/09/09 04:18:30;;;;;;;;;;;;;;;14.42;100.00;100328.25;4959809;28;19976;-81
2022/09/09 04:20:57;;;;;;;;;;;;;;;14.52;100.00;100330.50;4958944;28;20607;-82
2022/09/09 04:23:25;;;;;;;;;;;;;;;14.51;100.00;100326.09;4990942;28;19922;-81
2022/09/09 04:25:52;;;;;;;;;;;;;;;14.44;100.00;100329.91;4957583;28;19925;-81
2022/09/09 04:28:19;;;;;;;;;;;;;;;14.34;100.00;100337.41;4976625;28;19970;-81
2022/09/09 04:30:46;;;;;;;;;;;;;;;14.30;100.00;100341.13;4969979;28;19968;-82
2022/09/09 04:33:13;;;;;;;;;;;;;;;14.24;100.00;100337.84;4968916;28;20000;-82
2022/09/09 04:35:40;;;;;;;;;;;;;;;14.20;100.00;100345.06;4954940;28;20422;-82
2022/09/09 04:38:09;;;;;;;;;;;;;;;14.23;100.00;100350.28;4944072;28;19922;-82
2022/09/09 04:40:35;;;;;;;;;;;;;;;14.22;100.00;100353.00;4973074;28;19929;-81
2022/09/09 04:43:04;;;;;;;;;;;;;;;14.18;100.00;100346.06;4959669;28;19957;-82
2022/09/09 04:45:31;;;;;;;;;;;;;;;14.18;100.00;100354.03;4951297;28;19926;-82
2022/09/09 04:47:57;;;;;;;;;;;;;;;14.38;100.00;100354.09;4958794;28;19929;-82
2022/09/09 04:50:24;;;;;;;;;;;;;;;14.32;100.00;100354.34;4971304;28;19921;-82
2022/09/09 04:52:51;;;;;;;;;;;;;;;14.30;100.00;100361.53;4970744;28;19922;-82
2022/09/09 04:55:17;;;;;;;;;;;;;;;14.40;100.00;100352.25;4968955;28;20376;-82
2022/09/09 04:57:44;;;;;;;;;;;;;;;14.39;100.00;100358.50;4952534;28;19925;-82
2022/09/09 05:00:11;;;;;;;;;;;;;;;14.34;100.00;100352.47;4959715;28;19926;-82
2022/09/09 05:02:38;;;;;;;;;;;;;;;14.29;100.00;100351.78;4972992;28;20429;-82
2022/09/09 05:05:05;;;;;;;;;;;;;;;14.23;100.00;100346.75;4975045;28;19928;-82
2022/09/09 05:07:31;;;;;;;;;;;;;;;14.18;100.00;100360.22;4974148;28;19922;-82
2022/09/09 05:09:58;;;;;;;;;;;;;;;14.19;100.00;100347.78;4959246;28;19976;-82
2022/09/09 05:12:25;;;;;;;;;;;;;;;14.24;100.00;100352.00;4957145;28;20008;-82
2022/09/09 05:14:52;;;;;;;;;;;;;;;14.26;100.00;100359.91;4975183;28;20019;-82
2022/09/09 05:17:18;;;;;;;;;;;;;;;14.32;100.00;100359.66;4973839;28;19921;-81
2022/09/09 05:19:45;;;;;;;;;;;;;;;14.23;100.00;100368.88;4977235;28;19946;-82
2022/09/09 05:22:11;;;;;;;;;;;;;;;14.31;100.00;100363.25;4961790;28;20371;-81
2022/09/09 05:24:38;;;;;;;;;;;;;;;14.25;100.00;100366.16;4964261;28;20387;-81
2022/09/09 05:27:06;;;;;;;;;;;;;;;14.28;100.00;100363.34;4973619;28;19921;-81
2022/09/09 05:29:33;;;;;;;;;;;;;;;14.35;100.00;100370.16;4959041;28;20300;-82
2022/09/09 05:31:59;;;;;;;;;;;;;;;14.36;100.00;100371.88;4978465;28;19977;-82
2022/09/09 05:34:26;;;;;;;;;;;;;;;14.49;100.00;100380.28;4974410;28;20028;-82
2022/09/09 05:36:53;;;;;;;;;;;;;;;14.55;100.00;100380.03;4959662;28;20042;-81
2022/09/09 05:39:20;;;;;;;;;;;;;;;14.50;100.00;100379.34;4957424;28;20338;-82
2022/09/09 05:41:46;;;;;;;;;;;;;;;14.63;100.00;100375.25;4972897;28;20326;-82
2022/09/09 05:44:13;;;;;;;;;;;;;;;14.70;100.00;100376.69;4954338;28;19922;-82
2022/09/09 05:46:39;;;;;;;;;;;;;;;14.66;100.00;100382.22;4965377;28;20024;-82
2022/09/09 05:49:06;;;;;;;;;;;;;;;14.77;100.00;100379.97;4974101;28;19921;-82
2022/09/09 05:51:33;;;;;;;;;;;;;;;14.60;100.00;100376.22;4988841;28;19922;-81
2022/09/09 05:53:59;;;;;;;;;;;;;;;14.61;100.00;100383.28;4958587;28;19925;-82
2022/09/09 05:56:27;;;;;;;;;;;;;;;14.65;100.00;100384.03;4973263;28;19972;-82
2022/09/09 05:58:54;;;;;;;;;;;;;;;14.57;100.00;100387.00;4974851;28;20359;-81
2022/09/09 06:01:28;;;;;;;;;;;;;;;14.63;100.00;100388.56;4969620;28;20180;-81
2022/09/09 06:03:55;;;;;;;;;;;;;;;14.73;100.00;100397.88;4951986;28;19953;-81
2022/09/09 06:06:28;;;;;;;;;;;;;;;14.71;100.00;100394.38;4957191;28;19930;-81
2022/09/09 06:08:57;;;;;;;;;;;;;;;14.79;100.00;100394.06;4955075;28;19922;-81
2022/09/09 06:11:26;;;;;;;;;;;;;;;14.90;100.00;100395.38;4955683;28;19937;-81
2022/09/09 06:16:27;;;;;;;;;;;;;;;14.96;100.00;100388.91;4993424;28;19926;-82
2022/09/09 06:18:54;;;;;;;;;;;;;;;15.23;100.00;100386.84;4984711;28;19957;-82
2022/09/09 06:21:22;;;;;;;;;;;;;;;15.34;100.00;100391.69;4956606;28;19965;-82
2022/09/09 06:23:48;;;;;;;;;;;;;;;15.49;100.00;100383.91;4955348;28;20382;-82
2022/09/09 06:26:19;;;;;;;;;;;;;;;16.33;100.00;100381.78;4965778;28;19938;-81
2022/09/09 06:28:47;;;;;;;;;;;;;;;17.51;100.00;100392.66;4945930;28;19968;-82
2022/09/09 06:31:14;;;;;;;;;;;;;;;18.16;100.00;100382.91;4947984;29;19922;-81
2022/09/09 06:33:41;;;;;;;;;;;;;;;18.72;100.00;100388.63;4920625;29;20002;-82
2022/09/09 06:36:12;;;;;;;;;;;;;;;19.17;100.00;100386.84;4952197;28;20343;-82
2022/09/09 06:38:39;;;;;;;;;;;;;;;19.46;100.00;100391.28;4955949;28;19922;-83
2022/09/09 06:41:05;;;;;;;;;;;;;;;19.82;95.02;100384.63;4975272;28;19922;-82
2022/09/09 06:43:32;;;;;;;;;;;;;;;19.64;100.00;100378.59;4954686;28;19930;-82
2022/09/09 06:45:59;;;;;;;;;;;;;;;20.20;95.73;100390.25;4953673;28;20375;-82
2022/09/09 06:48:26;;;;;;;;;;;;;;;20.63;97.33;100391.00;4928164;29;19977;-82
2022/09/09 06:51:02;;;;;;;;;;;;;;;20.68;84.57;100396.03;4934947;29;20287;-83
2022/09/09 06:53:29;;;;;;;;;;;;;;;21.35;84.38;100391.47;4939085;28;20341;-83
2022/09/09 06:55:56;;;;;;;;;;;;;;;21.70;83.67;100385.47;4945888;28;20539;-83
2022/09/09 06:58:23;;;;;;;;;;;;;;;21.64;78.21;100389.47;4954891;28;19926;-82
2022/09/09 07:00:49;;;;;;;;;;;;;;;21.75;77.35;100384.16;4966479;28;19989;-82
2022/09/09 07:03:16;;;;;;;;;;;;;;;21.57;80.88;100382.78;4951453;29;19922;-82
2022/09/09 07:05:44;;;;;;;;;;;;;;;21.71;82.53;100379.13;4976254;28;19949;-82
2022/09/09 07:08:10;;;;;;;;;;;;;;;21.53;82.55;100379.47;4971099;28;19921;-83
2022/09/09 07:10:37;;;;;;;;;;;;;;;21.92;81.83;100382.97;4967627;28;19926;-83
2022/09/09 07:13:04;;;;;;;;;;;;;;;21.73;80.88;100380.72;4957507;28;19922;-83
2022/09/09 07:15:33;;;;;;;;;;;;;;;21.98;79.27;100389.75;4942902;28;20298;-82
2022/09/09 07:18:03;;;;;;;;;;;;;;;22.17;75.76;100393.69;4939389;28;19976;-85
2022/09/09 07:20:29;;;;;;;;;;;;;;;21.69;80.39;100384.59;4971153;28;19928;-82
2022/09/09 07:22:56;;;;;;;;;;;;;;;21.70;81.94;100386.34;4946962;28;19929;-84
2022/09/09 07:25:23;;;;;;;;;;;;;;;21.69;84.51;100384.59;4953689;28;20302;-83
2022/09/09 07:27:49;;;;;;;;;;;;;;;21.43;85.45;100390.94;4967949;28;20272;-84
2022/09/09 07:30:16;;;;;;;;;;;;;;;21.57;85.01;100393.53;4955681;28;19989;-84
2022/09/09 07:32:51;;;;;;;;;;;;;;;21.20;85.02;100398.78;4942347;28;19965;-82
2022/09/09 07:35:18;;;;;;;;;;;;;;;21.03;88.80;100393.69;4959128;28;19922;-84
2022/09/09 07:37:45;;;;;;;;;;;;;;;20.88;92.10;100397.41;4985101;22;19921;-83
2022/09/09 07:40:16;;;;;;;;;;;;;;;20.78;92.57;100397.16;4988833;28;20489;-83
2022/09/09 07:45:32;;;;;;;;;;;;;;;20.65;92.84;100409.69;5012081;28;19927;-82
2022/09/09 07:47:58;;;;;;;;;;;;;;;20.36;93.38;100414.25;5015553;28;19921;-82
2022/09/09 07:50:25;;;;;;;;;;;;;;;20.48;94.08;100408.09;4996502;28;19928;-83
2022/09/09 07:52:52;;;;;;;;;;;;;;;20.17;95.84;100412.72;5009233;28;19921;-82
2022/09/09 07:55:19;;;;;;;;;;;;;;;20.01;95.72;100412.03;4984299;28;19921;-83
2022/09/09 07:57:45;;;;;;;;;;;;;;;19.78;98.86;100409.91;4996735;28;20402;-82
2022/09/09 08:00:14;;;;;;;;;;;;;;;19.74;99.26;100406.53;4997240;28;19921;-83
2022/09/09 08:02:41;;;;;;;;;;;;;;;19.70;100.00;100409.53;4994466;28;19928;-81
2022/09/09 08:05:07;;;;;;;;;;;;;;;19.66;99.58;100408.84;4998450;28;19922;-82
2022/09/09 08:07:34;;;;;;;;;;;;;;;19.72;96.52;100405.78;5007520;28;20317;-83
2022/09/09 08:10:00;;;;;;;;;;;;;;;19.68;97.69;100412.31;5013155;28;19925;-85
2022/09/09 08:12:27;;;;;;;;;;;;;;;19.68;99.24;100413.19;4995530;28;19925;-84
2022/09/09 08:14:54;;;;;;;;;;;;;;;19.45;99.63;100413.69;4996893;28;19921;-83
2022/09/09 08:17:21;;;;;;;;;;;;;;;19.55;99.96;100413.97;5012271;28;19928;-83
2022/09/09 08:19:48;;;;;;;;;;;;;;;19.51;100.00;100420.50;4980573;28;19928;-83
2022/09/09 08:22:14;;;;;;;;;;;;;;;19.40;96.68;100413.97;4978534;28;20283;-81
2022/09/09 08:24:41;;;;;;;;;;;;;;;19.42;97.38;100419.22;4996185;28;19921;-84
2022/09/09 08:27:07;;;;;;;;;;;;;;;19.30;100.00;100407.44;4994396;28;19925;-83
2022/09/09 08:29:34;;;;;;;;;;;;;;;19.45;93.27;100407.47;4996604;28;19940;-82
2022/09/09 08:32:02;;;;;;;;;;;;;;;19.25;95.88;100409.53;4979236;28;19921;-83
2022/09/09 08:34:30;;;;;;;;;;;;;;;19.25;97.74;100414.88;4980135;28;19929;-83
2022/09/09 08:36:56;;;;;;;;;;;;;;;19.23;99.71;100416.78;4979303;28;20371;-83
2022/09/09 08:39:23;;;;;;;;;;;;;;;19.52;100.00;100423.09;5012901;28;19921;-84
2022/09/09 08:42:00;;;;;;;;;;;;;;;19.55;98.65;100420.19;4985212;28;20290;-85
2022/09/09 08:44:36;;;;;;;;;;;;;;;19.73;97.79;100420.91;5012079;28;19921;-83
2022/09/09 08:47:21;;;;;;;;;;;;;;;19.61;96.84;100417.19;5016564;28;19925;-83
2022/09/09 08:49:56;;;;;;;;;;;;;;;19.82;92.51;100420.34;4991830;28;19929;-83
2022/09/09 08:52:27;;;;;;;;;;;;;;;20.03;95.26;100423.50;4974730;28;20405;-84
2022/09/09 08:54:55;;;;;;;;;;;;;;;20.27;94.30;100423.75;5013550;28;19944;-84
2022/09/09 08:57:26;;;;;;;;;;;;;;;20.44;94.92;100426.25;5007869;28;19936;-84
2022/09/09 08:59:55;;;;;;;;;;;;;;;20.58;89.11;100425.31;5002810;28;19929;-83
2022/09/09 09:02:24;;;;;;;;;;;;;;;20.72;87.92;100427.09;4987854;28;19925;-84
2022/09/09 09:04:58;;;;;;;;;;;;;;;20.87;88.50;100422.53;5010768;28;19921;-84
2022/09/09 09:07:28;;;;;;;;;;;;;;;20.98;83.59;100423.53;5011058;28;19921;-83
2022/09/09 09:10:21;;;;;;;;;;;;;;;21.19;86.98;100418.53;4997431;28;20024;-83
2022/09/09 09:13:10;;;;;;;;;;;;;;;21.37;79.07;100419.13;5027314;28;19921;-83
2022/09/09 09:15:37;;;;;;;;;;;;;;;21.35;78.21;100421.91;4994365;28;19956;-83
2022/09/09 09:18:04;;;;;;;;;;;;;;;21.41;80.07;100425.13;4979669;28;20473;-84
2022/09/09 09:21:00;;;;;;;;;;;;;;;21.55;78.85;100417.00;4978634;28;20342;-85
2022/09/09 09:23:30;;;;;;;;;;;;;;;21.83;78.32;100418.59;4986889;28;19929;-84
2022/09/09 09:26:00;;;;;;;;;;;;;;;22.00;78.72;100409.31;5009505;28;19951;-83
2022/09/09 09:28:27;;;;;;;;;;;;;;;22.26;74.04;100416.38;4994880;28;19925;-84
2022/09/09 09:31:14;;;;;;;;;;;;;;;22.34;77.82;100415.81;4993471;28;19937;-84
2022/09/09 09:33:40;;;;;;;;;;;;;;;22.34;76.26;100422.06;5011078;28;20390;-84
2022/09/09 09:36:08;;;;;;;;;;;;;;;22.50;77.50;100419.09;5012914;28;19921;-84
2022/09/09 09:38:35;;;;;;;;;;;;;;;22.58;75.06;100422.09;4979241;28;19922;-84
2022/09/09 09:41:31;;;;;;;;;;;;;;;22.43;72.71;100426.75;4981750;28;20011;-84
2022/09/09 09:43:58;;;;;;;;;;;;;;;22.44;73.69;100424.94;4986180;28;19925;-81
2022/09/09 09:46:25;;;;;;;;;;;;;;;22.45;74.88;100427.53;4977276;28;19921;-81
2022/09/09 09:48:58;;;;;;;;;;;;;;;22.33;77.55;100427.56;4994658;28;19928;-84
2022/09/09 09:51:24;;;;;;;;;;;;;;;22.44;74.97;100430.31;4993028;28;20306;-80
2022/09/09 09:53:53;;;;;;;;;;;;;;;22.44;74.59;100425.78;5027181;28;19947;-82
2022/09/09 09:56:28;;;;;;;;;;;;;;;22.36;70.38;100432.72;4993435;28;19921;-84
2022/09/09 09:58:55;;;;;;;;;;;;;;;22.19;73.21;100425.88;4993591;28;19921;-83
2022/09/09 10:01:22;;;;;;;;;;;;;;;22.19;72.47;100420.47;4983513;28;19953;-82
2022/09/09 10:03:52;;;;;;;;;;;;;;;22.07;74.74;100415.97;5010796;28;19921;-84
2022/09/09 10:06:35;;;;;;;;;;;;;;;22.04;79.72;100425.13;4989191;28;19972;-83
2022/09/09 10:09:04;;;;;;;;;;;;;;;22.00;78.46;100423.63;4984507;28;19921;-83
2022/09/09 10:11:37;;;;;;;;;;;;;;;21.96;75.37;100422.13;5009378;28;19922;-83
2022/09/09 10:14:17;;;;;;;;;;;;;;;21.88;76.93;100427.19;4994197;28;19968;-83
2022/09/09 10:17:02;;;;;;;;;;;;;;;21.85;74.40;100424.72;4989742;28;19929;-82
2022/09/09 10:19:35;;;;;;;;;;;;;;;21.93;80.69;100417.81;4993552;28;19972;-84
2022/09/09 10:22:21;;;;;;;;;;;;;;;22.12;79.97;100421.94;4988073;28;19932;-84
2022/09/09 10:24:51;;;;;;;;;;;;;;;22.08;76.95;100423.09;5019532;28;19928;-82
2022/09/09 10:27:17;;;;;;;;;;;;;;;22.42;81.22;100429.56;4992612;28;19925;-82
2022/09/09 10:29:56;;;;;;;;;;;;;;;22.94;76.24;100429.28;5010494;28;19928;-83
2022/09/09 10:32:34;;;;;;;;;;;;;;;23.26;72.30;100426.81;5025275;28;19975;-83
2022/09/09 10:35:11;;;;;;;;;;;;;;;23.73;71.79;100433.09;4978057;28;19925;-84
2022/09/09 10:37:44;;;;;;;;;;;;;;;23.85;68.43;100428.53;4992971;28;20040;-83
2022/09/09 10:40:29;;;;;;;;;;;;;;;23.88;65.85;100436.41;4994210;28;19971;-84
2022/09/09 10:43:00;;;;;;;;;;;;;;;23.76;66.10;100429.28;4994162;28;20374;-82
2022/09/09 10:45:50;;;;;;;;;;;;;;;23.76;62.54;100426.56;4994110;28;19925;-83
2022/09/09 10:48:37;;;;;;;;;;;;;;;23.83;60.92;100438.59;5006736;28;20462;-82
2022/09/09 10:51:14;;;;;;;;;;;;;;;23.87;63.71;100430.13;4998516;28;19975;-82
2022/09/09 10:53:56;;;;;;;;;;;;;;;23.73;61.52;100435.78;4990482;28;20345;-83
2022/09/09 10:56:23;;;;;;;;;;;;;;;23.92;62.45;100432.47;4997306;28;19944;-83
2022/09/09 10:58:52;;;;;;;;;;;;;;;23.87;64.17;100437.38;4993291;28;20270;-82
2022/09/09 11:01:26;;;;;;;;;;;;;;;23.84;63.37;100432.22;4997532;28;19983;-82
2022/09/09 11:03:55;;;;;;;;;;;;;;;23.61;63.25;100434.03;4997774;28;19921;-83
2022/09/09 11:06:23;;;;;;;;;;;;;;;23.81;63.72;100427.09;4991902;28;19922;-83
2022/09/09 11:08:49;;;;;;;;;;;;;;;23.85;64.96;100437.50;5013212;28;19921;-82
2022/09/09 11:11:26;;;;;;;;;;;;;;;23.52;62.44;100432.88;4981943;28;19921;-84
2022/09/09 11:13:54;;;;;;;;;;;;;;;23.62;62.75;100438.44;4980760;28;19983;-83
2022/09/09 11:16:31;;;;;;;;;;;;;;;23.68;64.41;100437.13;5011295;28;20374;-83
2022/09/09 11:19:02;;;;;;;;;;;;;;;23.57;63.18;100435.22;5013623;28;20011;-83
2022/09/09 11:21:31;;;;;;;;;;;;;;;23.58;63.62;100434.25;4979518;28;20367;-85
2022/09/09 11:24:12;;;;;;;;;;;;;;;23.76;64.65;100432.84;4977938;28;20378;-83
2022/09/09 11:26:41;;;;;;;;;;;;;;;23.89;61.64;100431.88;5007856;28;19921;-82
2022/09/09 11:29:07;;;;;;;;;;;;;;;24.15;64.08;100434.19;4993371;28;19964;-83
2022/09/09 11:31:34;;;;;;;;;;;;;;;24.02;62.71;100433.44;5010059;28;20408;-83
2022/09/09 11:34:30;;;;;;;;;;;;;;;23.79;62.88;100432.56;4991334;28;19922;-84
2022/09/09 11:37:15;;;;;;;;;;;;;;;23.72;63.66;100434.06;5022520;28;19921;-83
2022/09/09 11:39:52;;;;;;;;;;;;;;;23.96;65.15;100436.63;4996076;28;19975;-84
2022/09/09 11:42:20;;;;;;;;;;;;;;;24.28;61.93;100425.09;5002950;28;20289;-83
2022/09/09 11:44:46;;;;;;;;;;;;;;;24.30;61.88;100423.13;4996766;28;20532;-83
2022/09/09 11:47:26;;;;;;;;;;;;;;;24.63;59.58;100431.19;5023329;28;19921;-83
2022/09/09 11:49:53;;;;;;;;;;;;;;;24.65;58.45;100429.22;4998298;28;19928;-83
2022/09/09 11:52:47;;;;;;;;;;;;;;;24.37;59.36;100433.31;4996063;28;20523;-83
2022/09/09 11:55:27;;;;;;;;;;;;;;;24.24;61.04;100423.63;5008907;28;20293;-83
2022/09/09 11:58:00;;;;;;;;;;;;;;;23.92;62.25;100423.53;4990831;28;19944;-82
2022/09/09 12:00:27;;;;;;;;;;;;;;;23.81;65.64;100424.38;5012200;28;19925;-83
2022/09/09 12:02:54;;;;;;;;;;;;;;;23.74;65.46;100423.16;5011360;28;19921;-83
2022/09/09 12:05:21;;;;;;;;;;;;;;;23.79;63.14;100420.94;4999668;28;19921;-83
2022/09/09 12:07:53;;;;;;;;;;;;;;;23.92;62.77;100412.72;5008968;28;19921;-82
2022/09/09 12:10:27;;;;;;;;;;;;;;;24.03;64.02;100408.19;5009812;28;19921;-83
2022/09/09 12:12:53;;;;;;;;;;;;;;;23.95;65.42;100412.47;4997527;28;19929;-83
2022/09/09 12:15:25;;;;;;;;;;;;;;;23.90;63.19;100410.16;4979610;28;19929;-84
2022/09/09 12:17:53;;;;;;;;;;;;;;;24.01;63.69;100406.59;4991555;28;19925;-83
2022/09/09 12:20:25;;;;;;;;;;;;;;;24.35;59.36;100402.03;5009694;28;20389;-83
2022/09/09 12:23:10;;;;;;;;;;;;;;;24.49;61.58;100406.31;5012767;28;19925;-83
2022/09/09 12:25:53;;;;;;;;;;;;;;;24.25;61.50;100410.00;5005946;28;19922;-83
2022/09/09 12:28:40;;;;;;;;;;;;;;;24.01;61.25;100403.91;4991073;28;19929;-83
2022/09/09 12:31:07;;;;;;;;;;;;;;;23.80;60.51;100401.94;5009845;28;19925;-83
2022/09/09 12:33:45;;;;;;;;;;;;;;;23.72;63.08;100404.41;5011217;28;20016;-83
2022/09/09 12:36:13;;;;;;;;;;;;;;;24.00;60.96;100397.63;5010022;28;19970;-83
2022/09/09 12:38:40;;;;;;;;;;;;;;;24.34;63.39;100394.94;4978550;28;19921;-81
2022/09/09 12:41:23;;;;;;;;;;;;;;;24.49;58.19;100390.97;5008440;28;19979;-85
2022/09/09 12:43:50;;;;;;;;;;;;;;;24.43;57.88;100391.47;4993924;28;19932;-83
2022/09/09 12:46:27;;;;;;;;;;;;;;;24.36;58.03;100390.25;4973842;28;19929;-84
2022/09/09 12:48:54;;;;;;;;;;;;;;;24.30;59.06;100393.41;4994279;28;19971;-83
2022/09/09 12:51:27;;;;;;;;;;;;;;;24.33;57.42;100385.97;4993436;28;19928;-83